sensor_id;sensor_type;location;lat;lon;timestamp;pressure;altitude;pressure_sealevel;temperature;humidity
49311;BME280;35177;45.900;5.946;2023-09-30T00:00:02;98435.44;;;18.31;75.00
49311;BME280;35177;45.900;5.946;2023-09-30T00:02:29;98444.19;;;18.44;74.37
49311;BME280;35177;45.900;5.946;2023-09-30T00:04:55;98457.34;;;18.36;74.57
49311;BME280;35177;45.900;5.946;2023-09-30T00:07:20;98444.94;;;18.46;74.42
49311;BME280;35177;45.900;5.946;2023-09-30T00:09:46;98441.00;;;18.50;74.06
49311;BME280;35177;45.900;5.946;2023-09-30T00:12:12;98444.41;;;18.52;73.59
49311;BME280;35177;45.900;5.946;2023-09-30T00:14:37;98445.50;;;18.50;73.79
49311;BME280;35177;45.900;5.946;2023-09-30T00:17:03;98445.41;;;18.51;73.17
49311;BME280;35177;45.900;5.946;2023-09-30T00:19:28;98450.38;;;18.56;73.31
49311;BME280;35177;45.900;5.946;2023-09-30T00:21:54;98449.75;;;18.52;73.42
49311;BME280;35177;45.900;5.946;2023-09-30T00:24:19;98452.69;;;18.49;73.44
49311;BME280;35177;45.900;5.946;2023-09-30T00:26:45;98448.47;;;18.36;74.25
49311;BME280;35177;45.900;5.946;2023-09-30T00:29:11;98445.50;;;18.18;75.01
49311;BME280;35177;45.900;5.946;2023-09-30T00:31:36;98451.16;;;18.04;75.77
49311;BME280;35177;45.900;5.946;2023-09-30T00:34:02;98451.03;;;18.05;75.36
49311;BME280;35177;45.900;5.946;2023-09-30T00:36:27;98443.94;;;18.16;74.71
49311;BME280;35177;45.900;5.946;2023-09-30T00:38:53;98438.00;;;18.01;75.27
49311;BME280;35177;45.900;5.946;2023-09-30T00:41:18;98446.47;;;18.17;74.28
49311;BME280;35177;45.900;5.946;2023-09-30T00:43:46;98443.50;;;18.31;73.03
49311;BME280;35177;45.900;5.946;2023-09-30T00:46:26;98427.75;;;18.38;72.80
49311;BME280;35177;45.900;5.946;2023-09-30T00:48:53;98435.91;;;18.36;72.63
49311;BME280;35177;45.900;5.946;2023-09-30T00:51:19;98433.06;;;18.28;73.23
49311;BME280;35177;45.900;5.946;2023-09-30T00:53:45;98431.28;;;17.75;76.54
49311;BME280;35177;45.900;5.946;2023-09-30T00:56:11;98445.06;;;17.26;79.48
49311;BME280;35177;45.900;5.946;2023-09-30T00:58:37;98441.50;;;16.92;81.95
49311;BME280;35177;45.900;5.946;2023-09-30T01:01:04;98441.34;;;16.26;84.54
49311;BME280;35177;45.900;5.946;2023-09-30T01:03:29;98445.28;;;16.44;85.99
49311;BME280;35177;45.900;5.946;2023-09-30T01:05:55;98459.06;;;16.61;85.62
49311;BME280;35177;45.900;5.946;2023-09-30T01:08:21;98449.25;;;16.73;85.76
49311;BME280;35177;45.900;5.946;2023-09-30T01:10:47;98459.72;;;16.87;85.08
49311;BME280;35177;45.900;5.946;2023-09-30T01:13:13;98454.59;;;16.73;86.17
49311;BME280;35177;45.900;5.946;2023-09-30T01:15:39;98444.63;;;16.64;86.37
49311;BME280;35177;45.900;5.946;2023-09-30T01:18:05;98447.06;;;16.56;85.78
49311;BME280;35177;45.900;5.946;2023-09-30T01:20:30;98430.34;;;17.20;79.38
49311;BME280;35177;45.900;5.946;2023-09-30T01:22:57;98434.97;;;17.29;79.08
49311;BME280;35177;45.900;5.946;2023-09-30T01:25:24;98439.94;;;17.34;79.71
49311;BME280;35177;45.900;5.946;2023-09-30T01:27:49;98439.34;;;17.19;80.07
49311;BME280;35177;45.900;5.946;2023-09-30T01:30:17;98440.56;;;17.38;78.01
49311;BME280;35177;45.900;5.946;2023-09-30T01:32:43;98435.22;;;17.15;81.10
49311;BME280;35177;45.900;5.946;2023-09-30T01:35:09;98434.72;;;16.88;82.04
49311;BME280;35177;45.900;5.946;2023-09-30T01:37:35;98430.59;;;16.84;82.54
49311;BME280;35177;45.900;5.946;2023-09-30T01:40:01;98432.84;;;16.78;83.53
49311;BME280;35177;45.900;5.946;2023-09-30T01:42:28;98433.84;;;16.65;84.66
49311;BME280;35177;45.900;5.946;2023-09-30T01:44:54;98437.97;;;16.70;83.72
49311;BME280;35177;45.900;5.946;2023-09-30T01:47:19;98437.47;;;16.30;84.97
49311;BME280;35177;45.900;5.946;2023-09-30T01:49:45;98439.47;;;16.15;85.68
49311;BME280;35177;45.900;5.946;2023-09-30T01:52:10;98438.72;;;15.89;86.62
49311;BME280;35177;45.900;5.946;2023-09-30T01:54:36;98433.78;;;15.96;86.80
49311;BME280;35177;45.900;5.946;2023-09-30T01:57:02;98441.00;;;15.59;90.44
49311;BME280;35177;45.900;5.946;2023-09-30T01:59:28;98436.00;;;15.78;90.46
49311;BME280;35177;45.900;5.946;2023-09-30T02:01:54;98435.81;;;16.05;89.84
49311;BME280;35177;45.900;5.946;2023-09-30T02:04:19;98438.38;;;16.18;89.41
49311;BME280;35177;45.900;5.946;2023-09-30T02:06:44;98435.44;;;16.10;90.01
49311;BME280;35177;45.900;5.946;2023-09-30T02:09:10;98431.28;;;16.06;90.50
49311;BME280;35177;45.900;5.946;2023-09-30T02:11:36;98433.41;;;16.24;89.73
49311;BME280;35177;45.900;5.946;2023-09-30T02:14:03;98435.91;;;16.38;88.93
49311;BME280;35177;45.900;5.946;2023-09-30T02:16:28;98431.91;;;16.33;89.76
49311;BME280;35177;45.900;5.946;2023-09-30T02:18:53;98429.56;;;16.28;90.10
49311;BME280;35177;45.900;5.946;2023-09-30T02:21:19;98422.28;;;16.30;89.77
49311;BME280;35177;45.900;5.946;2023-09-30T02:23:47;98428.50;;;16.31;90.01
49311;BME280;35177;45.900;5.946;2023-09-30T02:26:16;98426.56;;;16.44;89.09
49311;BME280;35177;45.900;5.946;2023-09-30T02:28:42;98432.13;;;16.30;89.77
49311;BME280;35177;45.900;5.946;2023-09-30T02:31:08;98428.50;;;16.31;90.19
49311;BME280;35177;45.900;5.946;2023-09-30T02:33:34;98424.13;;;16.06;92.47
49311;BME280;35177;45.900;5.946;2023-09-30T02:36:03;98427.78;;;16.05;93.34
49311;BME280;35177;45.900;5.946;2023-09-30T02:38:31;98421.13;;;16.11;92.92
49311;BME280;35177;45.900;5.946;2023-09-30T02:40:57;98418.19;;;15.79;95.51
49311;BME280;35177;45.900;5.946;2023-09-30T02:43:22;98423.22;;;15.94;94.20
49311;BME280;35177;45.900;5.946;2023-09-30T02:45:47;98427.44;;;16.10;92.99
49311;BME280;35177;45.900;5.946;2023-09-30T02:48:13;98419.44;;;16.10;93.15
49311;BME280;35177;45.900;5.946;2023-09-30T02:50:41;98423.69;;;16.12;93.17
49311;BME280;35177;45.900;5.946;2023-09-30T02:53:09;98432.91;;;16.19;92.37
49311;BME280;35177;45.900;5.946;2023-09-30T02:55:34;98418.25;;;16.25;92.31
49311;BME280;35177;45.900;5.946;2023-09-30T02:58:00;98411.91;;;16.15;92.90
49311;BME280;35177;45.900;5.946;2023-09-30T03:00:26;98416.09;;;16.30;91.28
49311;BME280;35177;45.900;5.946;2023-09-30T03:02:52;98420.38;;;16.43;90.44
49311;BME280;35177;45.900;5.946;2023-09-30T03:05:18;98424.63;;;16.46;90.23
49311;BME280;35177;45.900;5.946;2023-09-30T03:07:45;98424.19;;;16.52;89.93
49311;BME280;35177;45.900;5.946;2023-09-30T03:10:11;98424.28;;;16.50;90.05
49311;BME280;35177;45.900;5.946;2023-09-30T03:12:38;98427.78;;;16.40;90.66
49311;BME280;35177;45.900;5.946;2023-09-30T03:15:04;98433.59;;;16.45;90.59
49311;BME280;35177;45.900;5.946;2023-09-30T03:17:30;98433.19;;;16.51;89.59
49311;BME280;35177;45.900;5.946;2023-09-30T03:19:57;98436.06;;;16.48;89.97
49311;BME280;35177;45.900;5.946;2023-09-30T03:22:23;98431.97;;;16.55;88.64
49311;BME280;35177;45.900;5.946;2023-09-30T03:24:48;98421.28;;;16.55;88.16
49311;BME280;35177;45.900;5.946;2023-09-30T03:27:14;98417.81;;;16.65;87.31
49311;BME280;35177;45.900;5.946;2023-09-30T03:29:40;98420.44;;;16.54;88.92
49311;BME280;35177;45.900;5.946;2023-09-30T03:32:06;98415.22;;;16.29;91.56
49311;BME280;35177;45.900;5.946;2023-09-30T03:34:33;98415.06;;;16.20;92.37
49311;BME280;35177;45.900;5.946;2023-09-30T03:37:02;98424.00;;;16.08;92.76
49311;BME280;35177;45.900;5.946;2023-09-30T03:39:28;98427.38;;;15.98;93.18
49311;BME280;35177;45.900;5.946;2023-09-30T03:41:55;98426.94;;;16.05;92.58
49311;BME280;35177;45.900;5.946;2023-09-30T03:44:21;98421.13;;;16.11;91.82
49311;BME280;35177;45.900;5.946;2023-09-30T03:46:48;98421.75;;;16.14;90.96
49311;BME280;35177;45.900;5.946;2023-09-30T03:49:13;98422.34;;;16.18;90.37
49311;BME280;35177;45.900;5.946;2023-09-30T03:51:39;98420.06;;;16.24;89.54
49311;BME280;35177;45.900;5.946;2023-09-30T03:54:04;98419.00;;;16.27;89.31
49311;BME280;35177;45.900;5.946;2023-09-30T03:56:30;98420.00;;;15.78;92.41
49311;BME280;35177;45.900;5.946;2023-09-30T03:58:56;98406.97;;;15.50;94.77
49311;BME280;35177;45.900;5.946;2023-09-30T04:01:21;98414.94;;;15.63;94.27
49311;BME280;35177;45.900;5.946;2023-09-30T04:03:48;98416.03;;;15.60;93.92
49311;BME280;35177;45.900;5.946;2023-09-30T04:06:14;98409.56;;;15.52;94.33
49311;BME280;35177;45.900;5.946;2023-09-30T04:08:40;98404.31;;;15.50;94.82
49311;BME280;35177;45.900;5.946;2023-09-30T04:11:05;98404.81;;;15.43;94.02
49311;BME280;35177;45.900;5.946;2023-09-30T04:13:31;98402.22;;;15.30;93.98
49311;BME280;35177;45.900;5.946;2023-09-30T04:15:56;98398.81;;;15.28;92.95
49311;BME280;35177;45.900;5.946;2023-09-30T04:18:25;98400.41;;;15.30;91.79
49311;BME280;35177;45.900;5.946;2023-09-30T04:20:54;98411.69;;;15.34;93.11
49311;BME280;35177;45.900;5.946;2023-09-30T04:23:20;98409.25;;;15.31;92.31
49311;BME280;35177;45.900;5.946;2023-09-30T04:25:47;98414.28;;;15.23;92.20
49311;BME280;35177;45.900;5.946;2023-09-30T04:28:13;98427.56;;;15.36;92.65
49311;BME280;35177;45.900;5.946;2023-09-30T04:30:39;98432.47;;;15.42;93.02
49311;BME280;35177;45.900;5.946;2023-09-30T04:33:05;98427.59;;;15.48;93.80
49311;BME280;35177;45.900;5.946;2023-09-30T04:35:30;98425.22;;;15.56;93.61
49311;BME280;35177;45.900;5.946;2023-09-30T04:37:56;98420.72;;;15.57;93.15
49311;BME280;35177;45.900;5.946;2023-09-30T04:40:27;98415.84;;;15.51;94.16
49311;BME280;35177;45.900;5.946;2023-09-30T04:42:53;98417.72;;;15.12;96.17
49311;BME280;35177;45.900;5.946;2023-09-30T04:45:24;98423.75;;;15.27;96.10
49311;BME280;35177;45.900;5.946;2023-09-30T04:47:51;98428.88;;;15.30;94.01
49311;BME280;35177;45.900;5.946;2023-09-30T04:50:17;98426.34;;;15.16;95.41
49311;BME280;35177;45.900;5.946;2023-09-30T04:52:43;98429.22;;;15.13;94.35
49311;BME280;35177;45.900;5.946;2023-09-30T04:55:09;98426.03;;;15.08;95.44
49311;BME280;35177;45.900;5.946;2023-09-30T04:57:37;98429.88;;;15.04;95.95
49311;BME280;35177;45.900;5.946;2023-09-30T05:00:02;98434.69;;;15.11;95.00
49311;BME280;35177;45.900;5.946;2023-09-30T05:02:37;98439.59;;;15.05;96.37
49311;BME280;35177;45.900;5.946;2023-09-30T05:05:03;98434.69;;;15.11;96.10
49311;BME280;35177;45.900;5.946;2023-09-30T05:07:32;98435.88;;;15.07;96.73
49311;BME280;35177;45.900;5.946;2023-09-30T05:09:59;98435.88;;;14.95;96.78
49311;BME280;35177;45.900;5.946;2023-09-30T05:12:31;98436.72;;;14.95;95.96
49311;BME280;35177;45.900;5.946;2023-09-30T05:14:58;98434.16;;;14.94;95.65
49311;BME280;35177;45.900;5.946;2023-09-30T05:17:24;98436.38;;;15.12;94.74
49311;BME280;35177;45.900;5.946;2023-09-30T05:19:49;98443.88;;;15.07;94.38
49311;BME280;35177;45.900;5.946;2023-09-30T05:22:15;98445.47;;;15.10;95.03
49311;BME280;35177;45.900;5.946;2023-09-30T05:24:40;98449.19;;;14.95;97.24
49311;BME280;35177;45.900;5.946;2023-09-30T05:27:05;98461.13;;;15.14;96.17
49311;BME280;35177;45.900;5.946;2023-09-30T05:29:31;98454.50;;;15.20;95.92
49311;BME280;35177;45.900;5.946;2023-09-30T05:31:58;98451.00;;;15.07;96.41
49311;BME280;35177;45.900;5.946;2023-09-30T05:34:24;98454.53;;;14.95;97.92
49311;BME280;35177;45.900;5.946;2023-09-30T05:36:49;98456.41;;;15.18;96.95
49311;BME280;35177;45.900;5.946;2023-09-30T05:39:16;98459.63;;;15.10;96.81
49311;BME280;35177;45.900;5.946;2023-09-30T05:41:45;98461.53;;;15.08;97.19
49311;BME280;35177;45.900;5.946;2023-09-30T05:44:12;98452.81;;;15.06;97.05
49311;BME280;35177;45.900;5.946;2023-09-30T05:46:39;98460.59;;;14.97;96.05
49311;BME280;35177;45.900;5.946;2023-09-30T05:49:04;98465.63;;;14.89;96.85
49311;BME280;35177;45.900;5.946;2023-09-30T05:51:35;98462.97;;;14.89;95.07
49311;BME280;35177;45.900;5.946;2023-09-30T05:54:00;98471.16;;;14.86;96.10
49311;BME280;35177;45.900;5.946;2023-09-30T05:56:26;98465.72;;;14.87;95.90
49311;BME280;35177;45.900;5.946;2023-09-30T05:58:52;98468.50;;;14.86;93.55
49311;BME280;35177;45.900;5.946;2023-09-30T06:01:17;98469.44;;;14.59;94.56
49311;BME280;35177;45.900;5.946;2023-09-30T06:03:45;98465.56;;;14.38;94.26
49311;BME280;35177;45.900;5.946;2023-09-30T06:06:15;98461.53;;;14.45;93.43
49311;BME280;35177;45.900;5.946;2023-09-30T06:08:43;98475.06;;;14.42;93.92
49311;BME280;35177;45.900;5.946;2023-09-30T06:11:18;98470.50;;;14.44;93.86
49311;BME280;35177;45.900;5.946;2023-09-30T06:13:45;98476.69;;;14.57;92.98
49311;BME280;35177;45.900;5.946;2023-09-30T06:16:12;98487.00;;;14.49;93.53
49311;BME280;35177;45.900;5.946;2023-09-30T06:18:37;98478.59;;;14.55;94.85
49311;BME280;35177;45.900;5.946;2023-09-30T06:21:03;98485.53;;;14.71;93.05
49311;BME280;35177;45.900;5.946;2023-09-30T06:23:29;98495.97;;;14.74;93.36
49311;BME280;35177;45.900;5.946;2023-09-30T06:25:55;98483.72;;;14.96;92.77
49311;BME280;35177;45.900;5.946;2023-09-30T06:28:21;98488.84;;;15.12;93.14
49311;BME280;35177;45.900;5.946;2023-09-30T06:30:51;98491.50;;;15.24;93.57
49311;BME280;35177;45.900;5.946;2023-09-30T06:33:17;98497.03;;;15.34;93.63
49311;BME280;35177;45.900;5.946;2023-09-30T06:35:42;98493.28;;;15.37;94.05
49311;BME280;35177;45.900;5.946;2023-09-30T06:38:19;98503.53;;;15.55;92.68
49311;BME280;35177;45.900;5.946;2023-09-30T06:40:44;98503.09;;;15.61;92.64
49311;BME280;35177;45.900;5.946;2023-09-30T06:43:15;98518.59;;;15.56;93.23
49311;BME280;35177;45.900;5.946;2023-09-30T06:45:43;98511.75;;;15.52;92.35
49311;BME280;35177;45.900;5.946;2023-09-30T06:48:10;98518.69;;;15.42;91.23
49311;BME280;35177;45.900;5.946;2023-09-30T06:50:40;98518.03;;;15.39;89.17
49311;BME280;35177;45.900;5.946;2023-09-30T06:53:08;98528.50;;;15.54;87.72
49311;BME280;35177;45.900;5.946;2023-09-30T06:55:36;98516.97;;;15.66;86.86
49311;BME280;35177;45.900;5.946;2023-09-30T06:58:02;98515.56;;;15.73;85.35
49311;BME280;35177;45.900;5.946;2023-09-30T07:00:27;98511.75;;;15.65;85.58
49311;BME280;35177;45.900;5.946;2023-09-30T07:02:53;98524.25;;;15.52;90.01
49311;BME280;35177;45.900;5.946;2023-09-30T07:05:19;98524.91;;;15.05;95.79
49311;BME280;35177;45.900;5.946;2023-09-30T07:07:44;98529.06;;;15.09;96.60
49311;BME280;35177;45.900;5.946;2023-09-30T07:10:10;98529.78;;;15.11;96.86
49311;BME280;35177;45.900;5.946;2023-09-30T07:12:36;98525.97;;;15.40;95.52
49311;BME280;35177;45.900;5.946;2023-09-30T07:15:03;98525.69;;;15.68;92.23
49311;BME280;35177;45.900;5.946;2023-09-30T07:17:29;98524.28;;;15.75;91.39
49311;BME280;35177;45.900;5.946;2023-09-30T07:19:55;98525.22;;;15.87;90.27
49311;BME280;35177;45.900;5.946;2023-09-30T07:22:20;98527.34;;;15.94;89.65
49311;BME280;35177;45.900;5.946;2023-09-30T07:24:46;98532.66;;;16.07;88.76
49311;BME280;35177;45.900;5.946;2023-09-30T07:27:11;98532.59;;;16.20;88.56
49311;BME280;35177;45.900;5.946;2023-09-30T07:29:37;98538.09;;;16.29;89.54
49311;BME280;35177;45.900;5.946;2023-09-30T07:32:02;98526.13;;;16.35;88.20
49311;BME280;35177;45.900;5.946;2023-09-30T07:34:28;98524.69;;;16.42;88.27
49311;BME280;35177;45.900;5.946;2023-09-30T07:36:53;98528.03;;;16.56;87.91
49311;BME280;35177;45.900;5.946;2023-09-30T07:39:20;98524.22;;;16.72;88.06
49311;BME280;35177;45.900;5.946;2023-09-30T07:41:46;98531.19;;;16.85;87.01
49311;BME280;35177;45.900;5.946;2023-09-30T07:44:12;98538.84;;;16.90;86.33
49311;BME280;35177;45.900;5.946;2023-09-30T07:46:37;98546.06;;;17.00;84.85
49311;BME280;35177;45.900;5.946;2023-09-30T07:49:02;98542.56;;;17.11;84.70
49311;BME280;35177;45.900;5.946;2023-09-30T07:51:28;98530.19;;;17.21;83.88
49311;BME280;35177;45.900;5.946;2023-09-30T07:53:55;98536.63;;;17.29;85.08
49311;BME280;35177;45.900;5.946;2023-09-30T07:56:20;98530.41;;;17.18;85.21
49311;BME280;35177;45.900;5.946;2023-09-30T07:58:48;98527.63;;;17.30;83.04
49311;BME280;35177;45.900;5.946;2023-09-30T08:01:13;98520.06;;;17.35;83.06
49311;BME280;35177;45.900;5.946;2023-09-30T08:03:40;98532.16;;;17.52;82.24
49311;BME280;35177;45.900;5.946;2023-09-30T08:06:07;98533.16;;;17.62;82.94
49311;BME280;35177;45.900;5.946;2023-09-30T08:08:33;98533.72;;;17.66;83.22
49311;BME280;35177;45.900;5.946;2023-09-30T08:10:58;98532.53;;;17.70;83.93
49311;BME280;35177;45.900;5.946;2023-09-30T08:13:24;98538.13;;;17.67;83.14
49311;BME280;35177;45.900;5.946;2023-09-30T08:15:50;98547.25;;;17.75;82.03
49311;BME280;35177;45.900;5.946;2023-09-30T08:18:16;98544.91;;;17.82;80.07
49311;BME280;35177;45.900;5.946;2023-09-30T08:20:42;98531.28;;;17.85;79.51
49311;BME280;35177;45.900;5.946;2023-09-30T08:23:07;98536.03;;;17.92;80.58
49311;BME280;35177;45.900;5.946;2023-09-30T08:25:37;98545.13;;;18.01;79.41
49311;BME280;35177;45.900;5.946;2023-09-30T08:28:03;98539.69;;;18.02;78.91
49311;BME280;35177;45.900;5.946;2023-09-30T08:30:29;98541.72;;;18.10;79.10
49311;BME280;35177;45.900;5.946;2023-09-30T08:32:54;98538.06;;;18.11;80.49
49311;BME280;35177;45.900;5.946;2023-09-30T08:35:20;98527.56;;;18.30;78.92
49311;BME280;35177;45.900;5.946;2023-09-30T08:37:45;98532.41;;;18.36;76.97
49311;BME280;35177;45.900;5.946;2023-09-30T08:40:11;98536.66;;;18.39;78.19
49311;BME280;35177;45.900;5.946;2023-09-30T08:42:38;98539.69;;;18.45;77.93
49311;BME280;35177;45.900;5.946;2023-09-30T08:45:04;98545.78;;;18.47;77.30
49311;BME280;35177;45.900;5.946;2023-09-30T08:47:33;98542.56;;;18.64;75.36
49311;BME280;35177;45.900;5.946;2023-09-30T08:50:00;98536.56;;;18.72;75.83
49311;BME280;35177;45.900;5.946;2023-09-30T08:52:35;98538.53;;;18.70;77.33
49311;BME280;35177;45.900;5.946;2023-09-30T08:55:01;98527.81;;;18.70;74.38
49311;BME280;35177;45.900;5.946;2023-09-30T08:57:27;98538.06;;;18.86;75.60
49311;BME280;35177;45.900;5.946;2023-09-30T08:59:53;98536.81;;;18.69;75.77
49311;BME280;35177;45.900;5.946;2023-09-30T09:02:19;98528.44;;;18.62;73.60
49311;BME280;35177;45.900;5.946;2023-09-30T09:04:47;98526.28;;;18.77;73.96
49311;BME280;35177;45.900;5.946;2023-09-30T09:07:14;98527.28;;;18.76;74.08
49311;BME280;35177;45.900;5.946;2023-09-30T09:09:40;98523.66;;;18.87;73.34
49311;BME280;35177;45.900;5.946;2023-09-30T09:12:06;98524.66;;;19.06;71.99
49311;BME280;35177;45.900;5.946;2023-09-30T09:14:39;98524.78;;;19.25;68.72
49311;BME280;35177;45.900;5.946;2023-09-30T09:17:06;98520.94;;;19.39;67.82
49311;BME280;35177;45.900;5.946;2023-09-30T09:19:33;98535.97;;;19.51;68.11
49311;BME280;35177;45.900;5.946;2023-09-30T09:22:00;98523.53;;;19.50;66.38
49311;BME280;35177;45.900;5.946;2023-09-30T09:24:36;98523.78;;;19.47;66.28
49311;BME280;35177;45.900;5.946;2023-09-30T09:27:09;98524.69;;;19.57;68.27
49311;BME280;35177;45.900;5.946;2023-09-30T09:29:39;98521.34;;;19.65;65.77
49311;BME280;35177;45.900;5.946;2023-09-30T09:34:37;98523.19;;;19.74;64.82
49311;BME280;35177;45.900;5.946;2023-09-30T09:37:32;98522.25;;;19.84;64.49
49311;BME280;35177;45.900;5.946;2023-09-30T09:39:58;98517.78;;;20.04;65.50
49311;BME280;35177;45.900;5.946;2023-09-30T09:42:32;98514.16;;;20.24;64.99
49311;BME280;35177;45.900;5.946;2023-09-30T09:45:05;98511.91;;;20.29;64.48
49311;BME280;35177;45.900;5.946;2023-09-30T09:47:32;98514.44;;;20.31;64.81
49311;BME280;35177;45.900;5.946;2023-09-30T09:49:58;98513.06;;;20.55;64.69
49311;BME280;35177;45.900;5.946;2023-09-30T09:52:24;98511.53;;;20.62;63.71
49311;BME280;35177;45.900;5.946;2023-09-30T09:54:51;98512.94;;;20.57;64.15
49311;BME280;35177;45.900;5.946;2023-09-30T09:57:18;98505.13;;;20.54;64.49
49311;BME280;35177;45.900;5.946;2023-09-30T09:59:46;98506.56;;;20.58;63.78
49311;BME280;35177;45.900;5.946;2023-09-30T10:02:14;98496.78;;;20.86;65.27
49311;BME280;35177;45.900;5.946;2023-09-30T10:04:43;98498.63;;;20.85;64.48
49311;BME280;35177;45.900;5.946;2023-09-30T10:07:15;98494.94;;;20.86;64.36
49311;BME280;35177;45.900;5.946;2023-09-30T10:09:46;98487.50;;;21.26;64.18
49311;BME280;35177;45.900;5.946;2023-09-30T10:12:13;98488.09;;;21.30;61.27
49311;BME280;35177;45.900;5.946;2023-09-30T10:14:39;98489.16;;;21.47;63.02
49311;BME280;35177;45.900;5.946;2023-09-30T10:17:05;98490.84;;;21.48;62.33
49311;BME280;35177;45.900;5.946;2023-09-30T10:19:31;98480.84;;;21.67;60.88
49311;BME280;35177;45.900;5.946;2023-09-30T10:24:41;98481.06;;;22.28;58.74
49311;BME280;35177;45.900;5.946;2023-09-30T10:29:48;98472.03;;;22.20;58.75
49311;BME280;35177;45.900;5.946;2023-09-30T10:32:15;98469.63;;;21.99;60.38
49311;BME280;35177;45.900;5.946;2023-09-30T10:34:50;98475.38;;;21.50;61.74
49311;BME280;35177;45.900;5.946;2023-09-30T10:37:22;98479.69;;;21.33;62.86
49311;BME280;35177;45.900;5.946;2023-09-30T10:39:58;98483.09;;;21.72;65.22
49311;BME280;35177;45.900;5.946;2023-09-30T10:42:47;98480.09;;;21.38;63.13
49311;BME280;35177;45.900;5.946;2023-09-30T10:50:58;98472.28;;;22.08;60.14
49311;BME280;35177;45.900;5.946;2023-09-30T10:53:27;98465.22;;;21.71;63.02
49311;BME280;35177;45.900;5.946;2023-09-30T10:55:58;98462.44;;;21.63;64.18
49311;BME280;35177;45.900;5.946;2023-09-30T11:01:08;98454.69;;;22.93;58.37
49311;BME280;35177;45.900;5.946;2023-09-30T11:03:34;98442.84;;;22.86;57.49
49311;BME280;35177;45.900;5.946;2023-09-30T11:06:00;98453.09;;;22.47;57.82
49311;BME280;35177;45.900;5.946;2023-09-30T11:08:28;98449.19;;;22.41;61.17
49311;BME280;35177;45.900;5.946;2023-09-30T11:10:55;98451.41;;;22.28;60.45
49311;BME280;35177;45.900;5.946;2023-09-30T11:13:22;98449.94;;;22.34;60.03
49311;BME280;35177;45.900;5.946;2023-09-30T11:15:59;98451.50;;;22.36;60.34
49311;BME280;35177;45.900;5.946;2023-09-30T11:18:25;98450.56;;;22.28;58.42
49311;BME280;35177;45.900;5.946;2023-09-30T11:21:11;98463.78;;;22.21;60.52
49311;BME280;35177;45.900;5.946;2023-09-30T11:23:38;98462.13;;;22.55;59.94
49311;BME280;35177;45.900;5.946;2023-09-30T11:26:06;98450.88;;;22.60;58.30
49311;BME280;35177;45.900;5.946;2023-09-30T11:28:36;98449.81;;;22.96;56.04
49311;BME280;35177;45.900;5.946;2023-09-30T11:31:02;98444.22;;;22.90;57.17
49311;BME280;35177;45.900;5.946;2023-09-30T11:33:29;98443.47;;;23.31;58.93
49311;BME280;35177;45.900;5.946;2023-09-30T11:36:03;98436.72;;;23.61;55.36
49311;BME280;35177;45.900;5.946;2023-09-30T11:38:29;98435.84;;;23.26;58.74
49311;BME280;35177;45.900;5.946;2023-09-30T11:41:02;98432.94;;;23.45;55.24
49311;BME280;35177;45.900;5.946;2023-09-30T11:43:31;98420.28;;;23.46;55.34
49311;BME280;35177;45.900;5.946;2023-09-30T11:46:09;98432.88;;;23.12;57.44
49311;BME280;35177;45.900;5.946;2023-09-30T11:48:37;98426.31;;;22.89;57.46
49311;BME280;35177;45.900;5.946;2023-09-30T11:51:02;98435.53;;;23.04;58.06
49311;BME280;35177;45.900;5.946;2023-09-30T11:53:35;98425.59;;;22.78;57.38
49311;BME280;35177;45.900;5.946;2023-09-30T11:56:01;98431.59;;;22.98;56.69
49311;BME280;35177;45.900;5.946;2023-09-30T11:58:29;98423.41;;;23.08;55.53
49311;BME280;35177;45.900;5.946;2023-09-30T12:01:00;98416.34;;;22.63;57.51
49311;BME280;35177;45.900;5.946;2023-09-30T12:03:26;98416.56;;;22.52;59.60
49311;BME280;35177;45.900;5.946;2023-09-30T12:05:55;98418.75;;;22.66;55.13
49311;BME280;35177;45.900;5.946;2023-09-30T12:08:23;98416.09;;;22.57;56.69
49311;BME280;35177;45.900;5.946;2023-09-30T12:10:49;98413.94;;;22.43;57.65
49311;BME280;35177;45.900;5.946;2023-09-30T12:13:15;98410.31;;;22.52;56.50
49311;BME280;35177;45.900;5.946;2023-09-30T12:15:41;98411.63;;;22.65;57.26
49311;BME280;35177;45.900;5.946;2023-09-30T12:18:07;98404.59;;;22.72;57.43
49311;BME280;35177;45.900;5.946;2023-09-30T12:20:33;98402.78;;;22.55;59.73
49311;BME280;35177;45.900;5.946;2023-09-30T12:22:58;98408.31;;;22.71;57.55
49311;BME280;35177;45.900;5.946;2023-09-30T12:25:24;98412.31;;;23.19;57.03
49311;BME280;35177;45.900;5.946;2023-09-30T12:27:50;98410.47;;;23.45;55.01
49311;BME280;35177;45.900;5.946;2023-09-30T12:30:16;98407.78;;;23.19;58.35
49311;BME280;35177;45.900;5.946;2023-09-30T12:32:45;98414.44;;;23.33;60.56
49311;BME280;35177;45.900;5.946;2023-09-30T12:35:11;98400.03;;;23.50;56.88
49311;BME280;35177;45.900;5.946;2023-09-30T12:37:37;98404.47;;;23.59;57.13
49311;BME280;35177;45.900;5.946;2023-09-30T12:40:05;98400.56;;;23.28;55.94
49311;BME280;35177;45.900;5.946;2023-09-30T12:42:32;98393.97;;;22.71;56.13
49311;BME280;35177;45.900;5.946;2023-09-30T12:45:00;98400.06;;;22.99;54.83
49311;BME280;35177;45.900;5.946;2023-09-30T12:47:26;98395.97;;;23.20;54.60
49311;BME280;35177;45.900;5.946;2023-09-30T12:49:52;98398.56;;;23.30;54.91
49311;BME280;35177;45.900;5.946;2023-09-30T12:52:19;98401.41;;;23.28;53.19
49311;BME280;35177;45.900;5.946;2023-09-30T12:54:45;98394.34;;;23.27;54.98
49311;BME280;35177;45.900;5.946;2023-09-30T12:57:10;98391.75;;;23.43;54.82
49311;BME280;35177;45.900;5.946;2023-09-30T12:59:38;98389.34;;;23.40;54.73
49311;BME280;35177;45.900;5.946;2023-09-30T13:02:04;98397.22;;;23.34;56.82
49311;BME280;35177;45.900;5.946;2023-09-30T13:04:31;98394.31;;;23.53;55.55
49311;BME280;35177;45.900;5.946;2023-09-30T13:06:56;98395.00;;;23.55;54.30
49311;BME280;35177;45.900;5.946;2023-09-30T13:09:22;98388.44;;;23.66;54.96
49311;BME280;35177;45.900;5.946;2023-09-30T13:11:47;98385.19;;;23.54;57.78
49311;BME280;35177;45.900;5.946;2023-09-30T13:14:13;98386.41;;;23.68;55.44